sensor_id;sensor_type;location;lat;lon;timestamp;P1;durP1;ratioP1;P2;durP2;ratioP2
10343;SDS011;5217;43.960;10.954;2023-04-01T05:11:14;9.83;;;5.50;;
10343;SDS011;5217;43.960;10.954;2023-04-01T05:14:39;7.87;;;5.33;;
10343;SDS011;5217;43.960;10.954;2023-04-01T05:31:37;11.13;;;6.53;;
10343;SDS011;5217;43.960;10.954;2023-04-01T05:34:50;16.60;;;9.30;;
10343;SDS011;5217;43.960;10.954;2023-04-01T05:41:15;12.87;;;9.80;;
10343;SDS011;5217;43.960;10.954;2023-04-01T05:43:44;11.70;;;9.73;;
10343;SDS011;5217;43.960;10.954;2023-04-01T05:46:47;13.47;;;9.10;;
10343;SDS011;5217;43.960;10.954;2023-04-01T05:49:52;12.53;;;9.70;;
10343;SDS011;5217;43.960;10.954;2023-04-01T05:52:24;11.13;;;9.10;;
10343;SDS011;5217;43.960;10.954;2023-04-01T05:55:00;15.30;;;10.00;;
10343;SDS011;5217;43.960;10.954;2023-04-01T05:57:30;13.07;;;10.23;;
10343;SDS011;5217;43.960;10.954;2023-04-01T05:59:59;13.50;;;10.40;;
10343;SDS011;5217;43.960;10.954;2023-04-01T06:02:28;11.67;;;10.27;;
10343;SDS011;5217;43.960;10.954;2023-04-01T06:05:11;13.17;;;11.83;;
10343;SDS011;5217;43.960;10.954;2023-04-01T06:07:58;13.30;;;11.87;;
10343;SDS011;5217;43.960;10.954;2023-04-01T06:10:33;14.20;;;11.90;;
10343;SDS011;5217;43.960;10.954;2023-04-01T06:13:12;13.17;;;11.87;;
10343;SDS011;5217;43.960;10.954;2023-04-01T06:15:53;15.50;;;13.83;;
10343;SDS011;5217;43.960;10.954;2023-04-01T06:18:36;16.80;;;15.10;;
10343;SDS011;5217;43.960;10.954;2023-04-01T06:21:25;17.20;;;15.33;;
10343;SDS011;5217;43.960;10.954;2023-04-01T06:24:59;20.20;;;16.60;;
10343;SDS011;5217;43.960;10.954;2023-04-01T06:28:45;25.17;;;19.50;;
10343;SDS011;5217;43.960;10.954;2023-04-01T06:34:37;30.27;;;26.30;;
10343;SDS011;5217;43.960;10.954;2023-04-01T06:43:50;25.57;;;21.90;;
10343;SDS011;5217;43.960;10.954;2023-04-01T06:47:01;25.37;;;22.67;;
10343;SDS011;5217;43.960;10.954;2023-04-01T06:55:47;27.03;;;23.30;;
10343;SDS011;5217;43.960;10.954;2023-04-01T06:58:13;22.37;;;19.67;;
10343;SDS011;5217;43.960;10.954;2023-04-01T07:00:49;20.67;;;18.43;;
10343;SDS011;5217;43.960;10.954;2023-04-01T07:03:31;19.00;;;17.03;;
10343;SDS011;5217;43.960;10.954;2023-04-01T07:06:18;16.83;;;14.63;;
10343;SDS011;5217;43.960;10.954;2023-04-01T07:09:12;16.70;;;14.27;;
10343;SDS011;5217;43.960;10.954;2023-04-01T07:12:32;16.40;;;13.97;;
10343;SDS011;5217;43.960;10.954;2023-04-01T07:26:34;37.37;;;31.03;;
10343;SDS011;5217;43.960;10.954;2023-04-01T07:29:25;44.13;;;38.03;;
10343;SDS011;5217;43.960;10.954;2023-04-01T07:32:35;48.00;;;41.57;;
10343;SDS011;5217;43.960;10.954;2023-04-01T07:36:40;47.57;;;42.40;;
10343;SDS011;5217;43.960;10.954;2023-04-01T08:04:47;22.03;;;17.63;;
10343;SDS011;5217;43.960;10.954;2023-04-01T08:08:03;18.70;;;15.27;;
10343;SDS011;5217;43.960;10.954;2023-04-01T08:10:54;21.97;;;17.37;;
10343;SDS011;5217;43.960;10.954;2023-04-01T08:14:29;20.23;;;15.37;;
10343;SDS011;5217;43.960;10.954;2023-04-01T08:39:52;17.90;;;10.40;;
10343;SDS011;5217;43.960;10.954;2023-04-01T08:42:50;12.93;;;9.03;;
10343;SDS011;5217;43.960;10.954;2023-04-01T08:46:05;12.63;;;8.73;;
10343;SDS011;5217;43.960;10.954;2023-04-01T08:49:10;11.93;;;7.90;;
10343;SDS011;5217;43.960;10.954;2023-04-01T09:00:08;10.00;;;6.57;;
10343;SDS011;5217;43.960;10.954;2023-04-01T09:06:37;10.27;;;6.83;;
10343;SDS011;5217;43.960;10.954;2023-04-01T09:54:04;10.07;;;7.70;;
10343;SDS011;5217;43.960;10.954;2023-04-01T10:06:51;9.60;;;8.60;;
10343;SDS011;5217;43.960;10.954;2023-04-01T10:16:54;9.57;;;8.10;;
10343;SDS011;5217;43.960;10.954;2023-04-01T10:54:49;5.90;;;4.90;;
10343;SDS011;5217;43.960;10.954;2023-04-01T11:12:29;4.10;;;2.63;;
10343;SDS011;5217;43.960;10.954;2023-04-01T11:15:31;9.20;;;3.78;;
10343;SDS011;5217;43.960;10.954;2023-04-01T11:24:37;7.53;;;3.47;;
10343;SDS011;5217;43.960;10.954;2023-04-01T11:33:43;6.57;;;3.13;;
10343;SDS011;5217;43.960;10.954;2023-04-01T11:40:29;11.93;;;4.03;;
10343;SDS011;5217;43.960;10.954;2023-04-01T11:46:03;13.20;;;4.32;;
10343;SDS011;5217;43.960;10.954;2023-04-01T11:48:49;17.55;;;5.25;;
10343;SDS011;5217;43.960;10.954;2023-04-01T11:55:23;12.00;;;4.45;;
10343;SDS011;5217;43.960;10.954;2023-04-01T11:58:06;10.90;;;3.97;;
10343;SDS011;5217;43.960;10.954;2023-04-01T12:01:55;10.95;;;4.13;;
10343;SDS011;5217;43.960;10.954;2023-04-01T12:04:40;10.60;;;4.10;;
10343;SDS011;5217;43.960;10.954;2023-04-01T12:08:18;13.65;;;4.22;;
10343;SDS011;5217;43.960;10.954;2023-04-01T12:11:16;8.82;;;3.15;;
10343;SDS011;5217;43.960;10.954;2023-04-01T12:13:49;8.93;;;4.22;;
10343;SDS011;5217;43.960;10.954;2023-04-01T12:16:41;10.18;;;4.07;;
10343;SDS011;5217;43.960;10.954;2023-04-01T12:19:23;12.98;;;4.03;;
10343;SDS011;5217;43.960;10.954;2023-04-01T12:25:14;11.07;;;3.92;;
10343;SDS011;5217;43.960;10.954;2023-04-01T12:27:54;8.57;;;3.70;;
10343;SDS011;5217;43.960;10.954;2023-04-01T12:30:50;9.35;;;3.75;;
10343;SDS011;5217;43.960;10.954;2023-04-01T12:36:52;8.65;;;3.88;;
10343;SDS011;5217;43.960;10.954;2023-04-01T12:39:59;12.23;;;4.25;;
10343;SDS011;5217;43.960;10.954;2023-04-01T12:46:14;12.57;;;4.00;;
10343;SDS011;5217;43.960;10.954;2023-04-01T12:48:54;10.10;;;3.90;;
10343;SDS011;5217;43.960;10.954;2023-04-01T12:51:47;10.80;;;3.85;;
10343;SDS011;5217;43.960;10.954;2023-04-01T12:54:31;9.43;;;3.95;;
10343;SDS011;5217;43.960;10.954;2023-04-01T12:57:50;10.65;;;3.80;;
10343;SDS011;5217;43.960;10.954;2023-04-01T13:00:46;12.48;;;4.15;;
10343;SDS011;5217;43.960;10.954;2023-04-01T13:04:17;8.25;;;3.50;;
10343;SDS011;5217;43.960;10.954;2023-04-01T13:07:07;10.68;;;3.70;;
10343;SDS011;5217;43.960;10.954;2023-04-01T13:10:30;8.85;;;3.95;;
10343;SDS011;5217;43.960;10.954;2023-04-01T13:13:15;9.88;;;3.90;;
10343;SDS011;5217;43.960;10.954;2023-04-01T13:18:56;9.75;;;4.03;;
10343;SDS011;5217;43.960;10.954;2023-04-01T13:21:32;6.80;;;2.90;;
10343;SDS011;5217;43.960;10.954;2023-04-01T13:24:11;7.50;;;3.20;;
10343;SDS011;5217;43.960;10.954;2023-04-01T13:34:06;6.72;;;3.33;;
10343;SDS011;5217;43.960;10.954;2023-04-01T13:37:30;14.25;;;9.57;;
10343;SDS011;5217;43.960;10.954;2023-04-01T13:43:51;8.95;;;3.78;;
10343;SDS011;5217;43.960;10.954;2023-04-01T13:46:40;7.30;;;3.10;;
10343;SDS011;5217;43.960;10.954;2023-04-01T13:49:48;8.63;;;4.55;;
10343;SDS011;5217;43.960;10.954;2023-04-01T13:52:52;7.60;;;3.35;;
10343;SDS011;5217;43.960;10.954;2023-04-01T13:55:39;6.55;;;3.08;;
10343;SDS011;5217;43.960;10.954;2023-04-01T13:58:35;6.75;;;3.05;;
10343;SDS011;5217;43.960;10.954;2023-04-01T14:01:25;7.88;;;4.00;;
10343;SDS011;5217;43.960;10.954;2023-04-01T14:04:45;7.93;;;3.10;;
10343;SDS011;5217;43.960;10.954;2023-04-01T14:07:28;7.50;;;3.58;;
10343;SDS011;5217;43.960;10.954;2023-04-01T14:10:05;7.15;;;3.50;;
10343;SDS011;5217;43.960;10.954;2023-04-01T14:12:41;7.07;;;4.18;;
10343;SDS011;5217;43.960;10.954;2023-04-01T14:15:33;7.00;;;3.10;;
10343;SDS011;5217;43.960;10.954;2023-04-01T14:18:43;6.60;;;3.72;;
10343;SDS011;5217;43.960;10.954;2023-04-01T14:21:27;7.85;;;3.90;;
10343;SDS011;5217;43.960;10.954;2023-04-01T14:24:08;6.25;;;2.70;;
10343;SDS011;5217;43.960;10.954;2023-04-01T14:26:57;5.88;;;2.60;;
10343;SDS011;5217;43.960;10.954;2023-04-01T14:30:03;10.85;;;3.13;;
10343;SDS011;5217;43.960;10.954;2023-04-01T14:32:44;6.57;;;2.83;;
10343;SDS011;5217;43.960;10.954;2023-04-01T14:35:24;5.28;;;3.10;;
10343;SDS011;5217;43.960;10.954;2023-04-01T14:41:12;6.90;;;3.50;;
10343;SDS011;5217;43.960;10.954;2023-04-01T14:43:47;7.63;;;2.72;;
10343;SDS011;5217;43.960;10.954;2023-04-01T14:47:01;8.95;;;2.95;;
10343;SDS011;5217;43.960;10.954;2023-04-01T14:49:48;7.22;;;3.25;;
10343;SDS011;5217;43.960;10.954;2023-04-01T14:52:26;10.77;;;4.15;;
10343;SDS011;5217;43.960;10.954;2023-04-01T14:55:00;7.88;;;3.40;;
10343;SDS011;5217;43.960;10.954;2023-04-01T14:57:41;6.72;;;3.50;;
10343;SDS011;5217;43.960;10.954;2023-04-01T15:00:12;11.27;;;7.20;;
10343;SDS011;5217;43.960;10.954;2023-04-01T15:03:22;9.63;;;5.03;;
10343;SDS011;5217;43.960;10.954;2023-04-01T15:06:17;6.93;;;2.90;;
10343;SDS011;5217;43.960;10.954;2023-04-01T15:12:01;8.27;;;3.03;;
10343;SDS011;5217;43.960;10.954;2023-04-01T15:14:46;8.68;;;3.17;;
10343;SDS011;5217;43.960;10.954;2023-04-01T15:17:29;7.47;;;4.07;;
10343;SDS011;5217;43.960;10.954;2023-04-01T15:20:13;8.00;;;4.40;;
10343;SDS011;5217;43.960;10.954;2023-04-01T15:23:09;12.60;;;8.35;;
10343;SDS011;5217;43.960;10.954;2023-04-01T15:29:01;11.88;;;4.80;;
10343;SDS011;5217;43.960;10.954;2023-04-01T15:31:48;8.27;;;3.95;;
10343;SDS011;5217;43.960;10.954;2023-04-01T15:35:08;9.70;;;3.67;;
10343;SDS011;5217;43.960;10.954;2023-04-01T15:38:05;7.70;;;3.88;;
10343;SDS011;5217;43.960;10.954;2023-04-01T15:40:38;10.13;;;4.32;;
10343;SDS011;5217;43.960;10.954;2023-04-01T15:43:23;7.82;;;3.63;;
10343;SDS011;5217;43.960;10.954;2023-04-01T15:46:12;10.38;;;4.30;;
10343;SDS011;5217;43.960;10.954;2023-04-01T15:49:02;10.70;;;4.22;;
10343;SDS011;5217;43.960;10.954;2023-04-01T15:51:39;11.00;;;4.65;;
10343;SDS011;5217;43.960;10.954;2023-04-01T15:58:00;10.27;;;4.93;;
10343;SDS011;5217;43.960;10.954;2023-04-01T16:00:37;17.55;;;6.20;;
10343;SDS011;5217;43.960;10.954;2023-04-01T16:03:17;13.65;;;5.70;;
10343;SDS011;5217;43.960;10.954;2023-04-01T16:09:03;12.88;;;6.55;;
10343;SDS011;5217;43.960;10.954;2023-04-01T16:11:46;17.83;;;10.45;;
10343;SDS011;5217;43.960;10.954;2023-04-01T16:17:36;16.85;;;7.50;;
10343;SDS011;5217;43.960;10.954;2023-04-01T16:20:27;13.88;;;5.50;;
10343;SDS011;5217;43.960;10.954;2023-04-01T16:23:11;12.32;;;5.43;;
10343;SDS011;5217;43.960;10.954;2023-04-01T16:26:06;10.63;;;5.93;;
10343;SDS011;5217;43.960;10.954;2023-04-01T16:28:42;13.90;;;7.70;;
10343;SDS011;5217;43.960;10.954;2023-04-01T16:31:25;9.77;;;5.30;;
10343;SDS011;5217;43.960;10.954;2023-04-01T16:34:04;14.43;;;5.43;;
10343;SDS011;5217;43.960;10.954;2023-04-01T16:36:41;9.70;;;4.45;;
10343;SDS011;5217;43.960;10.954;2023-04-01T16:39:26;10.27;;;5.05;;
10343;SDS011;5217;43.960;10.954;2023-04-01T16:42:11;9.10;;;3.90;;
10343;SDS011;5217;43.960;10.954;2023-04-01T16:45:35;11.02;;;4.30;;
10343;SDS011;5217;43.960;10.954;2023-04-01T16:48:11;13.30;;;5.57;;
10343;SDS011;5217;43.960;10.954;2023-04-01T16:51:01;13.18;;;5.97;;
10343;SDS011;5217;43.960;10.954;2023-04-01T16:54:40;11.18;;;5.00;;
10343;SDS011;5217;43.960;10.954;2023-04-01T16:57:52;15.15;;;5.82;;
10343;SDS011;5217;43.960;10.954;2023-04-01T17:00:53;11.77;;;5.10;;
10343;SDS011;5217;43.960;10.954;2023-04-01T17:07:35;13.23;;;5.07;;
10343;SDS011;5217;43.960;10.954;2023-04-01T17:14:35;16.27;;;9.60;;
10343;SDS011;5217;43.960;10.954;2023-04-01T17:17:14;14.82;;;7.07;;
10343;SDS011;5217;43.960;10.954;2023-04-01T17:51:39;13.95;;;5.90;;
10343;SDS011;5217;43.960;10.954;2023-04-01T17:54:16;16.58;;;8.48;;
10343;SDS011;5217;43.960;10.954;2023-04-01T18:00:50;12.02;;;4.88;;
10343;SDS011;5217;43.960;10.954;2023-04-01T18:16:08;20.23;;;11.80;;
10343;SDS011;5217;43.960;10.954;2023-04-01T18:18:48;18.73;;;10.50;;
10343;SDS011;5217;43.960;10.954;2023-04-01T18:21:35;28.13;;;17.70;;
10343;SDS011;5217;43.960;10.954;2023-04-01T18:24:30;37.83;;;21.20;;
10343;SDS011;5217;43.960;10.954;2023-04-01T18:27:23;33.03;;;19.85;;
10343;SDS011;5217;43.960;10.954;2023-04-01T18:30:02;28.00;;;18.52;;
10343;SDS011;5217;43.960;10.954;2023-04-01T18:32:44;25.58;;;16.77;;
10343;SDS011;5217;43.960;10.954;2023-04-01T18:35:19;24.20;;;16.17;;
10343;SDS011;5217;43.960;10.954;2023-04-01T18:37:57;23.17;;;13.15;;
10343;SDS011;5217;43.960;10.954;2023-04-01T18:40:33;22.80;;;12.65;;
10343;SDS011;5217;43.960;10.954;2023-04-01T18:43:14;25.65;;;15.75;;
10343;SDS011;5217;43.960;10.954;2023-04-01T18:45:50;31.90;;;20.83;;
10343;SDS011;5217;43.960;10.954;2023-04-01T18:48:33;32.78;;;20.45;;
10343;SDS011;5217;43.960;10.954;2023-04-01T18:51:34;27.60;;;18.35;;
10343;SDS011;5217;43.960;10.954;2023-04-01T18:54:13;27.23;;;16.98;;
10343;SDS011;5217;43.960;10.954;2023-04-01T18:56:52;22.85;;;14.50;;
10343;SDS011;5217;43.960;10.954;2023-04-01T18:59:37;22.33;;;14.13;;
10343;SDS011;5217;43.960;10.954;2023-04-01T19:02:25;20.88;;;13.18;;
10343;SDS011;5217;43.960;10.954;2023-04-01T19:05:07;20.05;;;12.57;;
10343;SDS011;5217;43.960;10.954;2023-04-01T19:07:41;18.73;;;12.25;;
10343;SDS011;5217;43.960;10.954;2023-04-01T19:10:26;19.05;;;10.75;;
10343;SDS011;5217;43.960;10.954;2023-04-01T19:13:08;21.95;;;14.15;;
10343;SDS011;5217;43.960;10.954;2023-04-01T19:15:46;19.85;;;11.02;;
10343;SDS011;5217;43.960;10.954;2023-04-01T19:18:24;14.70;;;8.50;;
10343;SDS011;5217;43.960;10.954;2023-04-01T19:21:07;14.93;;;7.50;;
10343;SDS011;5217;43.960;10.954;2023-04-01T19:26:38;14.57;;;7.07;;
10343;SDS011;5217;43.960;10.954;2023-04-01T19:29:25;15.35;;;8.50;;
10343;SDS011;5217;43.960;10.954;2023-04-01T19:32:14;19.15;;;11.00;;
10343;SDS011;5217;43.960;10.954;2023-04-01T19:34:54;18.25;;;10.50;;
10343;SDS011;5217;43.960;10.954;2023-04-01T19:37:44;17.55;;;10.48;;
10343;SDS011;5217;43.960;10.954;2023-04-01T19:40:21;17.15;;;9.50;;
10343;SDS011;5217;43.960;10.954;2023-04-01T19:43:14;16.80;;;9.63;;
10343;SDS011;5217;43.960;10.954;2023-04-01T19:46:10;19.60;;;10.73;;
10343;SDS011;5217;43.960;10.954;2023-04-01T19:48:51;20.13;;;12.07;;
10343;SDS011;5217;43.960;10.954;2023-04-01T19:51:47;21.57;;;13.50;;
10343;SDS011;5217;43.960;10.954;2023-04-01T19:54:46;20.00;;;11.43;;
10343;SDS011;5217;43.960;10.954;2023-04-01T19:57:32;21.95;;;11.07;;
10343;SDS011;5217;43.960;10.954;2023-04-01T20:00:14;17.87;;;8.83;;
10343;SDS011;5217;43.960;10.954;2023-04-01T20:02:58;12.47;;;6.43;;
10343;SDS011;5217;43.960;10.954;2023-04-01T20:05:44;19.00;;;9.13;;
10343;SDS011;5217;43.960;10.954;2023-04-01T20:08:26;22.83;;;11.13;;
10343;SDS011;5217;43.960;10.954;2023-04-01T20:11:05;15.43;;;9.60;;
10343;SDS011;5217;43.960;10.954;2023-04-01T20:13:49;16.80;;;8.30;;
10343;SDS011;5217;43.960;10.954;2023-04-01T20:16:36;15.50;;;7.83;;
10343;SDS011;5217;43.960;10.954;2023-04-01T20:19:20;18.27;;;9.70;;
10343;SDS011;5217;43.960;10.954;2023-04-01T20:21:56;19.10;;;9.40;;
10343;SDS011;5217;43.960;10.954;2023-04-01T20:24:37;15.10;;;8.43;;
10343;SDS011;5217;43.960;10.954;2023-04-01T20:27:16;16.03;;;8.23;;
10343;SDS011;5217;43.960;10.954;2023-04-01T20:30:00;15.37;;;7.83;;
10343;SDS011;5217;43.960;10.954;2023-04-01T20:33:09;14.07;;;7.83;;
10343;SDS011;5217;43.960;10.954;2023-04-01T20:35:57;14.47;;;7.47;;
10343;SDS011;5217;43.960;10.954;2023-04-01T20:38:57;14.50;;;6.90;;
10343;SDS011;5217;43.960;10.954;2023-04-01T20:41:48;12.13;;;6.43;;
10343;SDS011;5217;43.960;10.954;2023-04-01T20:44:28;14.63;;;6.43;;
10343;SDS011;5217;43.960;10.954;2023-04-01T20:47:08;13.10;;;6.20;;
10343;SDS011;5217;43.960;10.954;2023-04-01T20:49:47;13.73;;;7.03;;
10343;SDS011;5217;43.960;10.954;2023-04-01T20:52:26;13.60;;;7.57;;
10343;SDS011;5217;43.960;10.954;2023-04-01T20:55:13;15.17;;;7.33;;
10343;SDS011;5217;43.960;10.954;2023-04-01T20:57:56;14.07;;;7.17;;
10343;SDS011;5217;43.960;10.954;2023-04-01T21:00:39;11.77;;;6.07;;
10343;SDS011;5217;43.960;10.954;2023-04-01T21:03:17;13.20;;;6.03;;
10343;SDS011;5217;43.960;10.954;2023-04-01T21:06:07;12.67;;;6.30;;
10343;SDS011;5217;43.960;10.954;2023-04-01T21:08:51;15.00;;;6.53;;
10343;SDS011;5217;43.960;10.954;2023-04-01T21:11:31;12.37;;;6.17;;
10343;SDS011;5217;43.960;10.954;2023-04-01T21:17:14;13.83;;;6.10;;
10343;SDS011;5217;43.960;10.954;2023-04-01T21:19:53;12.40;;;5.30;;
10343;SDS011;5217;43.960;10.954;2023-04-01T21:22:37;12.13;;;6.00;;
10343;SDS011;5217;43.960;10.954;2023-04-01T21:25:20;12.73;;;6.00;;
10343;SDS011;5217;43.960;10.954;2023-04-01T21:27:58;12.07;;;5.50;;
10343;SDS011;5217;43.960;10.954;2023-04-01T21:30:43;10.83;;;5.20;;
10343;SDS011;5217;43.960;10.954;2023-04-01T21:33:43;14.07;;;5.77;;
10343;SDS011;5217;43.960;10.954;2023-04-01T21:36:37;13.10;;;6.13;;
10343;SDS011;5217;43.960;10.954;2023-04-01T21:39:36;12.57;;;5.17;;
10343;SDS011;5217;43.960;10.954;2023-04-01T21:42:22;14.93;;;6.03;;
10343;SDS011;5217;43.960;10.954;2023-04-01T21:44:58;12.87;;;5.50;;
10343;SDS011;5217;43.960;10.954;2023-04-01T21:50:49;12.40;;;5.73;;
10343;SDS011;5217;43.960;10.954;2023-04-01T21:56:49;14.80;;;6.30;;
10343;SDS011;5217;43.960;10.954;2023-04-01T21:59:58;12.17;;;6.00;;
10343;SDS011;5217;43.960;10.954;2023-04-01T22:06:17;20.47;;;8.97;;
10343;SDS011;5217;43.960;10.954;2023-04-01T22:08:55;15.10;;;7.60;;
10343;SDS011;5217;43.960;10.954;2023-04-01T22:11:46;14.03;;;6.30;;
10343;SDS011;5217;43.960;10.954;2023-04-01T22:14:23;14.17;;;6.23;;
10343;SDS011;5217;43.960;10.954;2023-04-01T22:16:56;13.53;;;6.03;;
10343;SDS011;5217;43.960;10.954;2023-04-01T22:19:32;16.53;;;6.97;;
10343;SDS011;5217;43.960;10.954;2023-04-01T22:22:11;13.13;;;6.13;;
10343;SDS011;5217;43.960;10.954;2023-04-01T22:24:49;18.50;;;7.00;;
10343;SDS011;5217;43.960;10.954;2023-04-01T22:27:28;14.73;;;6.60;;
10343;SDS011;5217;43.960;10.954;2023-04-01T22:30:05;14.93;;;6.27;;
10343;SDS011;5217;43.960;10.954;2023-04-01T22:32:42;16.60;;;6.50;;
10343;SDS011;5217;43.960;10.954;2023-04-01T22:35:20;18.23;;;6.53;;
10343;SDS011;5217;43.960;10.954;2023-04-01T22:38:02;14.63;;;6.50;;
10343;SDS011;5217;43.960;10.954;2023-04-01T22:40:44;14.77;;;6.37;;
10343;SDS011;5217;43.960;10.954;2023-04-01T22:43:19;15.47;;;6.20;;
10343;SDS011;5217;43.960;10.954;2023-04-01T22:48:54;16.17;;;6.37;;
10343;SDS011;5217;43.960;10.954;2023-04-01T22:51:38;11.93;;;5.53;;
10343;SDS011;5217;43.960;10.954;2023-04-01T22:54:14;13.03;;;5.83;;
10343;SDS011;5217;43.960;10.954;2023-04-01T22:56:48;13.60;;;6.17;;
10343;SDS011;5217;43.960;10.954;2023-04-01T22:59:22;13.33;;;5.70;;
10343;SDS011;5217;43.960;10.954;2023-04-01T23:01:56;13.00;;;6.00;;
10343;SDS011;5217;43.960;10.954;2023-04-01T23:04:29;13.50;;;5.63;;
10343;SDS011;5217;43.960;10.954;2023-04-01T23:07:02;14.13;;;5.73;;
10343;SDS011;5217;43.960;10.954;2023-04-01T23:09:44;13.97;;;5.93;;
10343;SDS011;5217;43.960;10.954;2023-04-01T23:12:13;11.20;;;5.17;;
10343;SDS011;5217;43.960;10.954;2023-04-01T23:14:46;10.67;;;4.70;;
10343;SDS011;5217;43.960;10.954;2023-04-01T23:20:26;12.87;;;5.33;;
10343;SDS011;5217;43.960;10.954;2023-04-01T23:23:20;8.43;;;4.47;;
10343;SDS011;5217;43.960;10.954;2023-04-01T23:26:02;10.57;;;5.07;;
10343;SDS011;5217;43.960;10.954;2023-04-01T23:28:43;11.67;;;4.87;;
10343;SDS011;5217;43.960;10.954;2023-04-01T23:31:33;12.57;;;5.07;;
10343;SDS011;5217;43.960;10.954;2023-04-01T23:34:08;10.43;;;4.90;;
10343;SDS011;5217;43.960;10.954;2023-04-01T23:36:51;9.93;;;4.30;;
10343;SDS011;5217;43.960;10.954;2023-04-01T23:39:23;9.13;;;3.80;;
10343;SDS011;5217;43.960;10.954;2023-04-01T23:41:56;9.37;;;4.50;;
10343;SDS011;5217;43.960;10.954;2023-04-01T23:44:27;8.43;;;3.90;;
10343;SDS011;5217;43.960;10.954;2023-04-01T23:46:56;9.30;;;4.60;;
10343;SDS011;5217;43.960;10.954;2023-04-01T23:49:28;10.93;;;4.33;;
10343;SDS011;5217;43.960;10.954;2023-04-01T23:52:03;9.47;;;4.20;;
10343;SDS011;5217;43.960;10.954;2023-04-01T23:54:39;9.23;;;4.40;;
10343;SDS011;5217;43.960;10.954;2023-04-01T23:57:13;10.63;;;4.43;;
10343;SDS011;5217;43.960;10.954;2023-04-01T23:59:47;6.57;;;3.67;;
